Aviation Digital Data Service (ADDS)

Output produced by METARs form (1629 UTC 19 December 2014)
found at http://aviationweather.gov/adds/metars/
 
METAR text: KBFM 191553Z 06011KT 9SM -RA FEW009 BKN065 OVC095 09/07 A3022 RMK AO2 SLP234 P0015 T00890067
Conditions at: KBFM (MOBILE/BROOKLEY , AL, US) observed 1553 UTC 19 December 2014
Temperature: 8.9°C (48°F)
Dewpoint: 6.7°C (44°F) [RH = 86%]
Pressure (altimeter): 30.22 inches Hg (1023.5 mb)
[Sea-level pressure: 1023.4 mb]
Winds: from the ENE (60 degrees) at 13 MPH (11 knots; 5.7 m/s)
Visibility: 9 miles (14 km)
Ceiling: 6500 feet AGL
Clouds: few clouds at 900 feet AGL
broken clouds at 6500 feet AGL
overcast cloud deck at 9500 feet AGL
Weather: -RA  (light rain)